sensor_id;sensor_type;location;lat;lon;timestamp;pressure;altitude;pressure_sealevel;temperature;humidity
64192;BME280;50497;50.720;-2.084;2023-06-26T00:00:44;102912.50;;;15.79;100.00
64192;BME280;50497;50.720;-2.084;2023-06-26T00:03:09;102936.31;;;15.66;100.00
64192;BME280;50497;50.720;-2.084;2023-06-26T00:05:41;102947.81;;;15.71;100.00
64192;BME280;50497;50.720;-2.084;2023-06-26T00:08:07;102953.16;;;15.73;100.00
64192;BME280;50497;50.720;-2.084;2023-06-26T00:10:32;102964.16;;;15.67;100.00
64192;BME280;50497;50.720;-2.084;2023-06-26T00:12:57;102976.25;;;15.55;100.00
64192;BME280;50497;50.720;-2.084;2023-06-26T00:15:23;102992.44;;;15.55;100.00
64192;BME280;50497;50.720;-2.084;2023-06-26T00:17:49;102993.47;;;15.51;100.00
64192;BME280;50497;50.720;-2.084;2023-06-26T00:20:16;103016.84;;;15.50;100.00
64192;BME280;50497;50.720;-2.084;2023-06-26T00:22:41;103023.16;;;15.51;100.00
64192;BME280;50497;50.720;-2.084;2023-06-26T00:25:07;103040.34;;;15.47;100.00
64192;BME280;50497;50.720;-2.084;2023-06-26T00:27:33;103053.41;;;15.32;100.00
64192;BME280;50497;50.720;-2.084;2023-06-26T00:29:58;103072.16;;;15.36;100.00
64192;BME280;50497;50.720;-2.084;2023-06-26T00:32:24;103085.88;;;15.29;100.00
64192;BME280;50497;50.720;-2.084;2023-06-26T00:34:49;103116.53;;;15.25;100.00
64192;BME280;50497;50.720;-2.084;2023-06-26T00:37:15;103138.09;;;15.25;100.00
64192;BME280;50497;50.720;-2.084;2023-06-26T00:39:40;103147.97;;;15.26;100.00
64192;BME280;50497;50.720;-2.084;2023-06-26T00:42:06;103161.34;;;15.31;100.00
64192;BME280;50497;50.720;-2.084;2023-06-26T00:44:32;103165.78;;;15.32;100.00
64192;BME280;50497;50.720;-2.084;2023-06-26T00:46:57;103166.03;;;15.24;100.00
64192;BME280;50497;50.720;-2.084;2023-06-26T00:49:23;103183.19;;;15.20;100.00
64192;BME280;50497;50.720;-2.084;2023-06-26T00:51:48;103193.88;;;15.25;100.00
64192;BME280;50497;50.720;-2.084;2023-06-26T00:54:14;103203.88;;;15.21;100.00
64192;BME280;50497;50.720;-2.084;2023-06-26T00:56:45;103195.97;;;15.13;100.00
64192;BME280;50497;50.720;-2.084;2023-06-26T00:59:10;103204.09;;;15.12;100.00
64192;BME280;50497;50.720;-2.084;2023-06-26T01:01:36;103215.00;;;15.07;100.00
64192;BME280;50497;50.720;-2.084;2023-06-26T01:04:01;103216.06;;;15.02;100.00
64192;BME280;50497;50.720;-2.084;2023-06-26T01:06:28;103224.22;;;14.99;100.00
64192;BME280;50497;50.720;-2.084;2023-06-26T01:08:57;103225.25;;;14.94;100.00
64192;BME280;50497;50.720;-2.084;2023-06-26T01:11:23;103241.31;;;14.99;100.00
64192;BME280;50497;50.720;-2.084;2023-06-26T01:13:49;103234.13;;;14.98;100.00
64192;BME280;50497;50.720;-2.084;2023-06-26T01:16:16;103245.69;;;15.03;100.00
64192;BME280;50497;50.720;-2.084;2023-06-26T01:18:45;103238.88;;;14.88;100.00
64192;BME280;50497;50.720;-2.084;2023-06-26T01:21:11;103246.88;;;14.91;100.00
64192;BME280;50497;50.720;-2.084;2023-06-26T01:24:16;103266.84;;;14.84;100.00
64192;BME280;50497;50.720;-2.084;2023-06-26T01:26:53;103271.53;;;14.76;100.00
64192;BME280;50497;50.720;-2.084;2023-06-26T01:29:18;103299.25;;;14.81;100.00
64192;BME280;50497;50.720;-2.084;2023-06-26T01:31:45;103309.50;;;14.65;100.00
64192;BME280;50497;50.720;-2.084;2023-06-26T01:34:15;103327.25;;;14.74;100.00
64192;BME280;50497;50.720;-2.084;2023-06-26T01:36:41;103345.28;;;14.72;100.00
64192;BME280;50497;50.720;-2.084;2023-06-26T01:39:07;103372.16;;;14.75;100.00
64192;BME280;50497;50.720;-2.084;2023-06-26T01:41:34;103391.16;;;14.69;100.00
64192;BME280;50497;50.720;-2.084;2023-06-26T01:46:58;103417.47;;;14.56;100.00
64192;BME280;50497;50.720;-2.084;2023-06-26T01:54:39;103513.56;;;14.54;100.00
64192;BME280;50497;50.720;-2.084;2023-06-26T01:57:08;103557.69;;;14.48;100.00
64192;BME280;50497;50.720;-2.084;2023-06-26T01:59:35;103576.66;;;14.42;100.00
64192;BME280;50497;50.720;-2.084;2023-06-26T02:02:02;103608.09;;;14.43;100.00
64192;BME280;50497;50.720;-2.084;2023-06-26T02:04:27;103645.84;;;14.40;100.00
64192;BME280;50497;50.720;-2.084;2023-06-26T02:06:53;103661.22;;;14.33;100.00
64192;BME280;50497;50.720;-2.084;2023-06-26T02:09:20;103673.81;;;14.33;100.00
64192;BME280;50497;50.720;-2.084;2023-06-26T02:11:45;103668.56;;;14.23;100.00
64192;BME280;50497;50.720;-2.084;2023-06-26T02:14:10;102518.31;;;14.12;100.00
64192;BME280;50497;50.720;-2.084;2023-06-26T02:16:37;102488.63;;;14.15;100.00
64192;BME280;50497;50.720;-2.084;2023-06-26T02:19:03;102472.53;;;14.14;100.00
64192;BME280;50497;50.720;-2.084;2023-06-26T02:21:28;102460.84;;;14.15;100.00
64192;BME280;50497;50.720;-2.084;2023-06-26T02:23:53;102431.38;;;14.10;100.00
64192;BME280;50497;50.720;-2.084;2023-06-26T02:26:19;102424.41;;;14.04;100.00
64192;BME280;50497;50.720;-2.084;2023-06-26T02:28:44;102396.84;;;13.98;100.00
64192;BME280;50497;50.720;-2.084;2023-06-26T02:31:09;102357.44;;;13.95;100.00
64192;BME280;50497;50.720;-2.084;2023-06-26T02:33:35;102339.38;;;13.99;100.00
64192;BME280;50497;50.720;-2.084;2023-06-26T02:36:00;102333.94;;;14.00;100.00
64192;BME280;50497;50.720;-2.084;2023-06-26T02:38:26;102319.81;;;13.94;100.00
64192;BME280;50497;50.720;-2.084;2023-06-26T02:40:51;102317.25;;;13.91;100.00
64192;BME280;50497;50.720;-2.084;2023-06-26T02:43:16;102302.22;;;13.85;100.00
64192;BME280;50497;50.720;-2.084;2023-06-26T02:45:42;102305.50;;;13.93;100.00
64192;BME280;50497;50.720;-2.084;2023-06-26T02:48:08;102291.00;;;13.97;100.00
64192;BME280;50497;50.720;-2.084;2023-06-26T02:50:33;102302.81;;;13.93;100.00
64192;BME280;50497;50.720;-2.084;2023-06-26T02:52:58;102296.47;;;13.94;100.00
64192;BME280;50497;50.720;-2.084;2023-06-26T02:55:24;102313.63;;;13.92;100.00
64192;BME280;50497;50.720;-2.084;2023-06-26T02:57:49;102307.44;;;13.90;100.00
64192;BME280;50497;50.720;-2.084;2023-06-26T03:00:15;102300.50;;;13.82;100.00
64192;BME280;50497;50.720;-2.084;2023-06-26T03:02:40;102295.53;;;13.72;100.00
64192;BME280;50497;50.720;-2.084;2023-06-26T03:05:05;102283.09;;;13.67;100.00
64192;BME280;50497;50.720;-2.084;2023-06-26T03:07:31;102268.06;;;13.62;100.00
64192;BME280;50497;50.720;-2.084;2023-06-26T03:09:56;102244.28;;;13.49;100.00
64192;BME280;50497;50.720;-2.084;2023-06-26T03:12:22;102246.28;;;13.44;100.00
64192;BME280;50497;50.720;-2.084;2023-06-26T03:14:47;102229.66;;;13.33;100.00
64192;BME280;50497;50.720;-2.084;2023-06-26T03:17:12;102222.59;;;13.29;100.00
64192;BME280;50497;50.720;-2.084;2023-06-26T03:19:38;102197.53;;;13.28;100.00
64192;BME280;50497;50.720;-2.084;2023-06-26T03:22:03;102202.16;;;13.25;100.00
64192;BME280;50497;50.720;-2.084;2023-06-26T03:24:29;102203.13;;;13.22;100.00
64192;BME280;50497;50.720;-2.084;2023-06-26T03:26:54;102187.03;;;13.21;100.00
64192;BME280;50497;50.720;-2.084;2023-06-26T03:29:20;102181.09;;;13.11;100.00
64192;BME280;50497;50.720;-2.084;2023-06-26T03:31:45;102177.44;;;13.13;100.00
64192;BME280;50497;50.720;-2.084;2023-06-26T03:34:10;102178.38;;;13.12;100.00
64192;BME280;50497;50.720;-2.084;2023-06-26T03:36:36;102177.56;;;13.10;100.00
64192;BME280;50497;50.720;-2.084;2023-06-26T03:39:01;102170.56;;;13.05;100.00
64192;BME280;50497;50.720;-2.084;2023-06-26T03:41:26;102170.47;;;13.08;100.00
64192;BME280;50497;50.720;-2.084;2023-06-26T03:43:52;102176.94;;;13.02;100.00
64192;BME280;50497;50.720;-2.084;2023-06-26T03:46:17;102186.63;;;13.06;100.00
64192;BME280;50497;50.720;-2.084;2023-06-26T03:48:43;102191.19;;;13.04;100.00
64192;BME280;50497;50.720;-2.084;2023-06-26T03:51:08;102200.19;;;13.03;100.00
64192;BME280;50497;50.720;-2.084;2023-06-26T03:53:34;102193.81;;;13.06;100.00
64192;BME280;50497;50.720;-2.084;2023-06-26T03:55:59;102199.97;;;13.09;100.00
64192;BME280;50497;50.720;-2.084;2023-06-26T03:58:25;102205.44;;;13.06;100.00
64192;BME280;50497;50.720;-2.084;2023-06-26T04:00:51;102202.00;;;13.03;100.00
64192;BME280;50497;50.720;-2.084;2023-06-26T04:03:16;102205.63;;;13.02;100.00
64192;BME280;50497;50.720;-2.084;2023-06-26T04:05:42;102207.50;;;12.98;100.00
64192;BME280;50497;50.720;-2.084;2023-06-26T04:08:08;102207.50;;;12.98;100.00
64192;BME280;50497;50.720;-2.084;2023-06-26T04:10:34;102210.28;;;12.97;100.00
64192;BME280;50497;50.720;-2.084;2023-06-26T04:13:01;102223.53;;;13.01;100.00
64192;BME280;50497;50.720;-2.084;2023-06-26T04:15:26;102213.63;;;13.03;100.00
64192;BME280;50497;50.720;-2.084;2023-06-26T04:17:51;102213.69;;;13.02;100.00
64192;BME280;50497;50.720;-2.084;2023-06-26T04:20:17;102217.00;;;13.10;100.00
64192;BME280;50497;50.720;-2.084;2023-06-26T04:22:42;102211.56;;;13.11;100.00
64192;BME280;50497;50.720;-2.084;2023-06-26T04:25:08;102214.25;;;13.11;100.00
64192;BME280;50497;50.720;-2.084;2023-06-26T04:27:33;102200.91;;;13.08;100.00
64192;BME280;50497;50.720;-2.084;2023-06-26T04:29:59;102213.41;;;13.09;100.00
64192;BME280;50497;50.720;-2.084;2023-06-26T04:32:24;102210.72;;;13.09;100.00
64192;BME280;50497;50.720;-2.084;2023-06-26T04:34:49;102216.31;;;13.03;100.00
64192;BME280;50497;50.720;-2.084;2023-06-26T04:37:15;102219.81;;;13.05;100.00
64192;BME280;50497;50.720;-2.084;2023-06-26T04:39:43;102223.34;;;13.07;100.00
64192;BME280;50497;50.720;-2.084;2023-06-26T04:42:08;102227.84;;;13.07;100.00
64192;BME280;50497;50.720;-2.084;2023-06-26T04:44:35;102222.41;;;13.08;100.00
64192;BME280;50497;50.720;-2.084;2023-06-26T04:47:03;102223.91;;;13.17;100.00
64192;BME280;50497;50.720;-2.084;2023-06-26T04:49:28;102228.16;;;13.23;100.00
64192;BME280;50497;50.720;-2.084;2023-06-26T04:51:54;102218.22;;;13.26;100.00
64192;BME280;50497;50.720;-2.084;2023-06-26T04:54:20;102216.34;;;13.28;100.00
64192;BME280;50497;50.720;-2.084;2023-06-26T04:56:45;102222.31;;;13.38;100.00
64192;BME280;50497;50.720;-2.084;2023-06-26T04:59:12;102221.97;;;13.47;100.00
64192;BME280;50497;50.720;-2.084;2023-06-26T05:01:39;102220.28;;;13.45;100.00
64192;BME280;50497;50.720;-2.084;2023-06-26T05:04:05;102230.63;;;13.56;100.00
64192;BME280;50497;50.720;-2.084;2023-06-26T05:06:30;102234.13;;;13.58;100.00
64192;BME280;50497;50.720;-2.084;2023-06-26T05:08:56;102245.94;;;13.54;100.00
64192;BME280;50497;50.720;-2.084;2023-06-26T05:11:21;102252.03;;;13.59;100.00
64192;BME280;50497;50.720;-2.084;2023-06-26T05:13:47;102254.53;;;13.65;100.00
64192;BME280;50497;50.720;-2.084;2023-06-26T05:16:12;102250.81;;;13.67;100.00
64192;BME280;50497;50.720;-2.084;2023-06-26T05:18:37;102253.19;;;13.77;100.00
64192;BME280;50497;50.720;-2.084;2023-06-26T05:21:03;102255.72;;;13.81;100.00
64192;BME280;50497;50.720;-2.084;2023-06-26T05:23:33;102253.13;;;13.78;100.00
64192;BME280;50497;50.720;-2.084;2023-06-26T05:25:59;102256.31;;;13.90;100.00
64192;BME280;50497;50.720;-2.084;2023-06-26T05:28:25;102249.16;;;13.89;100.00
64192;BME280;50497;50.720;-2.084;2023-06-26T05:30:53;102249.06;;;13.92;100.00
64192;BME280;50497;50.720;-2.084;2023-06-26T05:33:19;102261.44;;;13.96;100.00
64192;BME280;50497;50.720;-2.084;2023-06-26T05:35:48;102265.97;;;13.95;100.00
64192;BME280;50497;50.720;-2.084;2023-06-26T05:38:14;102277.38;;;14.02;100.00
64192;BME280;50497;50.720;-2.084;2023-06-26T05:40:40;102271.50;;;14.14;100.00
64192;BME280;50497;50.720;-2.084;2023-06-26T05:43:06;102259.72;;;14.18;100.00
64192;BME280;50497;50.720;-2.084;2023-06-26T05:45:32;102264.88;;;14.25;100.00
64192;BME280;50497;50.720;-2.084;2023-06-26T05:47:57;102256.19;;;14.40;100.00
64192;BME280;50497;50.720;-2.084;2023-06-26T05:50:23;102271.22;;;14.46;100.00
64192;BME280;50497;50.720;-2.084;2023-06-26T05:52:49;102278.59;;;14.40;100.00
64192;BME280;50497;50.720;-2.084;2023-06-26T05:55:14;102291.53;;;14.54;100.00
64192;BME280;50497;50.720;-2.084;2023-06-26T05:57:41;102294.34;;;14.75;100.00
64192;BME280;50497;50.720;-2.084;2023-06-26T06:00:07;102310.22;;;14.83;100.00
64192;BME280;50497;50.720;-2.084;2023-06-26T06:02:39;102316.06;;;14.92;100.00
64192;BME280;50497;50.720;-2.084;2023-06-26T06:05:05;102320.06;;;15.06;100.00
64192;BME280;50497;50.720;-2.084;2023-06-26T06:07:34;102330.56;;;15.12;100.00
64192;BME280;50497;50.720;-2.084;2023-06-26T06:10:01;102340.47;;;15.33;100.00
64192;BME280;50497;50.720;-2.084;2023-06-26T06:12:26;102344.72;;;15.39;100.00
64192;BME280;50497;50.720;-2.084;2023-06-26T06:14:52;102355.22;;;15.67;100.00
64192;BME280;50497;50.720;-2.084;2023-06-26T06:17:20;102370.22;;;15.95;100.00
64192;BME280;50497;50.720;-2.084;2023-06-26T06:19:45;102390.59;;;16.23;100.00
64192;BME280;50497;50.720;-2.084;2023-06-26T06:22:11;102418.28;;;16.68;100.00
64192;BME280;50497;50.720;-2.084;2023-06-26T06:24:36;102463.47;;;16.85;100.00
64192;BME280;50497;50.720;-2.084;2023-06-26T06:27:01;102532.97;;;17.22;100.00
64192;BME280;50497;50.720;-2.084;2023-06-26T06:29:27;102648.41;;;17.01;100.00
64192;BME280;50497;50.720;-2.084;2023-06-26T06:31:52;102763.09;;;17.17;100.00
64192;BME280;50497;50.720;-2.084;2023-06-26T06:34:18;102865.28;;;17.31;100.00
64192;BME280;50497;50.720;-2.084;2023-06-26T06:36:43;103006.88;;;17.32;100.00
64192;BME280;50497;50.720;-2.084;2023-06-26T06:39:08;103140.00;;;17.42;100.00
64192;BME280;50497;50.720;-2.084;2023-06-26T06:41:34;103236.69;;;17.62;100.00
64192;BME280;50497;50.720;-2.084;2023-06-26T06:43:59;103346.84;;;18.10;100.00
64192;BME280;50497;50.720;-2.084;2023-06-26T06:46:25;103489.09;;;17.97;100.00
64192;BME280;50497;50.720;-2.084;2023-06-26T06:48:52;103554.09;;;17.97;100.00
64192;BME280;50497;50.720;-2.084;2023-06-26T06:51:18;103546.91;;;17.96;100.00
64192;BME280;50497;50.720;-2.084;2023-06-26T06:53:43;103600.41;;;18.16;100.00
64192;BME280;50497;50.720;-2.084;2023-06-26T06:56:08;103635.59;;;18.44;100.00
64192;BME280;50497;50.720;-2.084;2023-06-26T06:58:34;103709.88;;;18.92;100.00
64192;BME280;50497;50.720;-2.084;2023-06-26T07:01:01;103705.78;;;18.53;100.00
64192;BME280;50497;50.720;-2.084;2023-06-26T07:03:29;103654.72;;;18.39;100.00
64192;BME280;50497;50.720;-2.084;2023-06-26T07:05:55;103642.75;;;18.20;100.00
64192;BME280;50497;50.720;-2.084;2023-06-26T07:08:21;103579.38;;;18.49;100.00
64192;BME280;50497;50.720;-2.084;2023-06-26T07:10:46;103491.81;;;18.71;100.00
64192;BME280;50497;50.720;-2.084;2023-06-26T07:13:12;103434.91;;;18.69;100.00
64192;BME280;50497;50.720;-2.084;2023-06-26T07:15:37;103308.81;;;18.81;100.00
64192;BME280;50497;50.720;-2.084;2023-06-26T07:18:02;103253.00;;;19.18;100.00
64192;BME280;50497;50.720;-2.084;2023-06-26T07:20:28;103177.78;;;19.41;100.00
64192;BME280;50497;50.720;-2.084;2023-06-26T07:22:53;103109.84;;;19.42;100.00
64192;BME280;50497;50.720;-2.084;2023-06-26T07:25:18;103067.88;;;19.30;100.00
64192;BME280;50497;50.720;-2.084;2023-06-26T07:27:44;103004.53;;;19.49;100.00
64192;BME280;50497;50.720;-2.084;2023-06-26T07:30:10;102966.38;;;19.34;100.00
64192;BME280;50497;50.720;-2.084;2023-06-26T07:32:36;102947.94;;;19.95;100.00
64192;BME280;50497;50.720;-2.084;2023-06-26T07:35:01;102828.38;;;20.28;100.00
64192;BME280;50497;50.720;-2.084;2023-06-26T07:37:27;102641.94;;;20.40;100.00
64192;BME280;50497;50.720;-2.084;2023-06-26T07:39:52;102281.34;;;20.68;100.00
64192;BME280;50497;50.720;-2.084;2023-06-26T07:42:18;101950.63;;;20.91;100.00
64192;BME280;50497;50.720;-2.084;2023-06-26T07:44:43;101680.44;;;21.73;100.00
64192;BME280;50497;50.720;-2.084;2023-06-26T07:47:09;101452.19;;;21.67;100.00
64192;BME280;50497;50.720;-2.084;2023-06-26T07:49:34;101205.44;;;22.06;100.00
64192;BME280;50497;50.720;-2.084;2023-06-26T07:52:00;101012.53;;;21.19;100.00
64192;BME280;50497;50.720;-2.084;2023-06-26T07:57:02;101120.56;;;20.31;100.00
64192;BME280;50497;50.720;-2.084;2023-06-26T07:59:29;101167.13;;;20.38;100.00
64192;BME280;50497;50.720;-2.084;2023-06-26T08:01:56;101147.34;;;20.91;100.00
64192;BME280;50497;50.720;-2.084;2023-06-26T08:04:24;101243.09;;;21.70;100.00
64192;BME280;50497;50.720;-2.084;2023-06-26T08:06:52;101552.22;;;22.31;100.00
64192;BME280;50497;50.720;-2.084;2023-06-26T08:09:19;101735.22;;;22.04;100.00
64192;BME280;50497;50.720;-2.084;2023-06-26T08:11:45;101782.78;;;22.11;100.00
64192;BME280;50497;50.720;-2.084;2023-06-26T08:14:10;101814.06;;;22.52;100.00
64192;BME280;50497;50.720;-2.084;2023-06-26T08:16:38;101818.13;;;22.69;100.00
64192;BME280;50497;50.720;-2.084;2023-06-26T08:19:03;101818.00;;;22.82;100.00
64192;BME280;50497;50.720;-2.084;2023-06-26T08:21:29;101852.56;;;22.93;100.00
64192;BME280;50497;50.720;-2.084;2023-06-26T08:23:54;101858.94;;;22.59;100.00
64192;BME280;50497;50.720;-2.084;2023-06-26T08:26:19;101858.81;;;22.83;100.00
64192;BME280;50497;50.720;-2.084;2023-06-26T08:28:45;101860.63;;;23.05;100.00
64192;BME280;50497;50.720;-2.084;2023-06-26T08:31:10;101870.13;;;23.77;100.00
64192;BME280;50497;50.720;-2.084;2023-06-26T08:33:35;101886.22;;;23.92;100.00
64192;BME280;50497;50.720;-2.084;2023-06-26T08:36:01;101885.56;;;24.21;100.00
64192;BME280;50497;50.720;-2.084;2023-06-26T08:38:27;101923.50;;;24.14;100.00
64192;BME280;50497;50.720;-2.084;2023-06-26T08:40:52;101955.09;;;24.07;100.00
64192;BME280;50497;50.720;-2.084;2023-06-26T08:43:17;101971.28;;;24.31;100.00
64192;BME280;50497;50.720;-2.084;2023-06-26T08:45:43;101984.72;;;23.90;100.00
64192;BME280;50497;50.720;-2.084;2023-06-26T08:48:09;101985.41;;;23.83;100.00
64192;BME280;50497;50.720;-2.084;2023-06-26T08:50:36;102013.09;;;25.06;91.83
64192;BME280;50497;50.720;-2.084;2023-06-26T08:55:33;102018.66;;;24.52;95.25
64192;BME280;50497;50.720;-2.084;2023-06-26T08:58:01;102001.50;;;24.50;100.00
64192;BME280;50497;50.720;-2.084;2023-06-26T09:00:27;102011.72;;;24.90;98.67
64192;BME280;50497;50.720;-2.084;2023-06-26T09:02:53;101995.97;;;24.62;100.00
64192;BME280;50497;50.720;-2.084;2023-06-26T09:05:18;102011.41;;;24.63;96.76
64192;BME280;50497;50.720;-2.084;2023-06-26T09:07:44;102015.03;;;24.94;93.40
64192;BME280;50497;50.720;-2.084;2023-06-26T09:10:10;101989.78;;;25.21;100.00
64192;BME280;50497;50.720;-2.084;2023-06-26T09:12:36;102003.56;;;25.31;95.78
64192;BME280;50497;50.720;-2.084;2023-06-26T09:15:02;102015.44;;;24.47;95.37
64192;BME280;50497;50.720;-2.084;2023-06-26T09:17:34;102008.19;;;24.25;97.20
64192;BME280;50497;50.720;-2.084;2023-06-26T09:20:04;101997.19;;;23.83;100.00
64192;BME280;50497;50.720;-2.084;2023-06-26T09:22:33;101994.53;;;23.38;100.00
64192;BME280;50497;50.720;-2.084;2023-06-26T09:24:58;102016.97;;;23.64;93.79
64192;BME280;50497;50.720;-2.084;2023-06-26T09:27:24;102007.00;;;23.86;97.61
64192;BME280;50497;50.720;-2.084;2023-06-26T09:29:50;102016.53;;;24.56;92.97
64192;BME280;50497;50.720;-2.084;2023-06-26T09:32:16;102018.50;;;24.96;92.70
64192;BME280;50497;50.720;-2.084;2023-06-26T09:34:43;102016.22;;;24.70;94.27
64192;BME280;50497;50.720;-2.084;2023-06-26T09:37:12;102030.59;;;25.24;90.67
64192;BME280;50497;50.720;-2.084;2023-06-26T09:39:37;102028.03;;;25.63;81.41
64192;BME280;50497;50.720;-2.084;2023-06-26T09:42:04;102028.34;;;25.30;79.15
64192;BME280;50497;50.720;-2.084;2023-06-26T09:44:30;102024.94;;;24.32;86.11
64192;BME280;50497;50.720;-2.084;2023-06-26T09:46:56;102017.09;;;25.02;93.50
64192;BME280;50497;50.720;-2.084;2023-06-26T09:49:25;102028.63;;;25.26;85.50
64192;BME280;50497;50.720;-2.084;2023-06-26T09:51:51;102026.84;;;24.52;92.36
64192;BME280;50497;50.720;-2.084;2023-06-26T09:54:17;102032.84;;;24.46;82.13
64192;BME280;50497;50.720;-2.084;2023-06-26T09:56:43;102016.06;;;23.64;90.50
64192;BME280;50497;50.720;-2.084;2023-06-26T09:59:09;101990.41;;;23.43;100.00
64192;BME280;50497;50.720;-2.084;2023-06-26T10:01:40;101987.81;;;22.97;100.00
64192;BME280;50497;50.720;-2.084;2023-06-26T10:04:06;101956.91;;;23.19;100.00
64192;BME280;50497;50.720;-2.084;2023-06-26T10:06:33;101958.50;;;22.65;100.00
64192;BME280;50497;50.720;-2.084;2023-06-26T10:09:03;101940.22;;;22.07;100.00
64192;BME280;50497;50.720;-2.084;2023-06-26T10:11:39;101939.16;;;22.68;100.00
64192;BME280;50497;50.720;-2.084;2023-06-26T10:14:07;101954.66;;;22.56;100.00
64192;BME280;50497;50.720;-2.084;2023-06-26T10:16:35;101967.19;;;23.04;100.00
64192;BME280;50497;50.720;-2.084;2023-06-26T10:19:05;101960.34;;;22.64;100.00
64192;BME280;50497;50.720;-2.084;2023-06-26T10:21:33;101936.91;;;22.50;100.00
64192;BME280;50497;50.720;-2.084;2023-06-26T10:24:00;101918.66;;;22.51;100.00
64192;BME280;50497;50.720;-2.084;2023-06-26T10:26:28;101892.91;;;22.66;100.00
64192;BME280;50497;50.720;-2.084;2023-06-26T10:28:54;101868.22;;;22.34;100.00
64192;BME280;50497;50.720;-2.084;2023-06-26T10:31:25;101833.50;;;22.36;100.00
64192;BME280;50497;50.720;-2.084;2023-06-26T10:33:52;101807.06;;;22.03;100.00
64192;BME280;50497;50.720;-2.084;2023-06-26T10:36:27;101773.56;;;21.78;100.00
64192;BME280;50497;50.720;-2.084;2023-06-26T10:38:56;101810.72;;;21.79;100.00
64192;BME280;50497;50.720;-2.084;2023-06-26T10:41:22;101829.44;;;21.84;100.00
64192;BME280;50497;50.720;-2.084;2023-06-26T10:44:06;101867.53;;;21.72;100.00
64192;BME280;50497;50.720;-2.084;2023-06-26T10:47:08;101858.78;;;21.80;100.00
64192;BME280;50497;50.720;-2.084;2023-06-26T10:49:35;101860.06;;;21.99;100.00
64192;BME280;50497;50.720;-2.084;2023-06-26T10:52:01;101877.81;;;21.69;100.00
64192;BME280;50497;50.720;-2.084;2023-06-26T10:54:30;101915.97;;;23.19;100.00
64192;BME280;50497;50.720;-2.084;2023-06-26T10:56:56;101965.44;;;23.48;100.00
64192;BME280;50497;50.720;-2.084;2023-06-26T10:59:24;101956.63;;;23.56;100.00
64192;BME280;50497;50.720;-2.084;2023-06-26T11:04:47;101954.91;;;23.43;100.00
64192;BME280;50497;50.720;-2.084;2023-06-26T11:07:19;101941.31;;;23.10;100.00
64192;BME280;50497;50.720;-2.084;2023-06-26T11:10:01;101949.34;;;23.00;100.00
64192;BME280;50497;50.720;-2.084;2023-06-26T11:15:05;101981.13;;;23.78;100.00
64192;BME280;50497;50.720;-2.084;2023-06-26T11:17:32;101991.78;;;24.04;100.00
64192;BME280;50497;50.720;-2.084;2023-06-26T11:19:58;101982.56;;;23.61;100.00
64192;BME280;50497;50.720;-2.084;2023-06-26T11:22:24;101986.47;;;23.25;100.00
64192;BME280;50497;50.720;-2.084;2023-06-26T11:24:53;101984.91;;;22.76;100.00
64192;BME280;50497;50.720;-2.084;2023-06-26T11:27:18;101925.47;;;22.34;100.00
64192;BME280;50497;50.720;-2.084;2023-06-26T11:29:48;101895.44;;;21.87;100.00
64192;BME280;50497;50.720;-2.084;2023-06-26T11:32:14;101842.00;;;21.62;100.00
64192;BME280;50497;50.720;-2.084;2023-06-26T11:34:40;101724.13;;;21.25;100.00
64192;BME280;50497;50.720;-2.084;2023-06-26T11:37:07;101428.72;;;20.64;100.00
64192;BME280;50497;50.720;-2.084;2023-06-26T11:39:33;100650.63;;;20.20;100.00
64192;BME280;50497;50.720;-2.084;2023-06-26T11:41:59;101800.31;;;19.61;100.00
64192;BME280;50497;50.720;-2.084;2023-06-26T11:44:29;102509.31;;;19.69;100.00
64192;BME280;50497;50.720;-2.084;2023-06-26T11:46:56;102649.75;;;19.33;100.00
64192;BME280;50497;50.720;-2.084;2023-06-26T11:49:22;102869.66;;;18.57;100.00
64192;BME280;50497;50.720;-2.084;2023-06-26T11:51:50;102997.63;;;19.80;100.00
64192;BME280;50497;50.720;-2.084;2023-06-26T11:54:22;102974.69;;;21.04;100.00
64192;BME280;50497;50.720;-2.084;2023-06-26T11:56:57;102893.78;;;21.85;100.00
64192;BME280;50497;50.720;-2.084;2023-06-26T11:59:24;102753.59;;;22.74;100.00
64192;BME280;50497;50.720;-2.084;2023-06-26T12:01:51;102601.13;;;22.82;100.00
64192;BME280;50497;50.720;-2.084;2023-06-26T12:04:18;102163.69;;;22.93;100.00
64192;BME280;50497;50.720;-2.084;2023-06-26T12:06:50;101742.34;;;23.49;100.00
64192;BME280;50497;50.720;-2.084;2023-06-26T12:09:18;101471.97;;;22.87;100.00
64192;BME280;50497;50.720;-2.084;2023-06-26T12:11:45;101099.13;;;23.92;100.00
64192;BME280;50497;50.720;-2.084;2023-06-26T12:14:14;100859.09;;;24.23;100.00
64192;BME280;50497;50.720;-2.084;2023-06-26T12:16:40;101130.59;;;24.24;100.00
64192;BME280;50497;50.720;-2.084;2023-06-26T12:19:07;101160.72;;;24.69;100.00
64192;BME280;50497;50.720;-2.084;2023-06-26T12:24:13;101212.53;;;24.43;100.00
64192;BME280;50497;50.720;-2.084;2023-06-26T12:26:45;101267.44;;;25.51;100.00
64192;BME280;50497;50.720;-2.084;2023-06-26T12:29:15;101541.03;;;24.79;100.00
64192;BME280;50497;50.720;-2.084;2023-06-26T12:31:43;101653.78;;;24.03;100.00
64192;BME280;50497;50.720;-2.084;2023-06-26T12:34:13;101749.06;;;24.99;100.00
64192;BME280;50497;50.720;-2.084;2023-06-26T12:36:50;101769.78;;;24.92;100.00
64192;BME280;50497;50.720;-2.084;2023-06-26T12:39:20;101790.41;;;24.86;100.00
64192;BME280;50497;50.720;-2.084;2023-06-26T12:41:52;101739.16;;;25.27;100.00
64192;BME280;50497;50.720;-2.084;2023-06-26T12:44:28;101826.38;;;25.32;100.00
64192;BME280;50497;50.720;-2.084;2023-06-26T12:47:01;101928.25;;;24.85;98.07
64192;BME280;50497;50.720;-2.084;2023-06-26T12:49:37;101937.97;;;24.99;97.14